Airport View

Enter AWOS ICAO identifier for current METAR.

ex. KFNL

PAKH 212256Z AUTO 32018G24KT 290V350 BKN033 BKN040 11/04 A2972 RMK AO2 PK WND 33031/2206 SLP066 T01110039 PWINO $

21 Sep 2019 23:32

Frequency: 118.325

Phone: 907-836-2207

Other Area AWOS: PADQ

TAF PADQ 211736Z 2118/2218 27020G30KT P6SM SCT045 FM220600 26007KT P6SM BKN200 FM221600 VRB04KT P6SM VCSH SCT040 BKN080